AirNav   Air Wisconsin Up To $57,000 Bonus
 
 1098 users online  

19TX Woody Mc Clellan Ranch Airport
Temple, Texas, USA

GOING TO TEMPLE?


FAA INFORMATION EFFECTIVE 22 APRIL 2021

Location

FAA Identifier: 19TX
Lat/Long: 31-14-17.6220N 097-30-51.0500W
31-14.293700N 097-30.850833W
31.2382283,-97.5141806
(estimated)
Elevation: 690 ft. / 210 m (estimated)
Variation: 07E (1985)
From city: 12 miles NW of TEMPLE, TX
Time zone: UTC -5 (UTC -6 during Standard Time)
Zip code: 76528

Airport Operations

Airport use: Private use. Permission required prior to landing
Activation date: 04/1976
Control tower: no
ARTCC: FORT WORTH CENTER
FSS: SAN ANGELO FLIGHT SERVICE STATION
Attendance: UNATNDD
Wind indicator: yes
Segmented circle: no

Airport Communications

WX AWOS-3PT at TPL (8 nm SE): 134.975 (254-774-8337)
WX AWOS-3PT at ILE (13 nm SW): 128.575 (254-690-3131)
WX AWOS-3PT at PWG (18 nm NE): 135.525 (254-848-4581)
WX AWOS-3 at GOP (18 nm NW): 119.725 (254-865-6742)

Nearby radio navigation aids

VOR radial/distance  VOR name  Freq  Var
GRKr044/19.7GRAY VOR/DME111.8007E
ACTr197/28.4WACO VORTAC115.3009E
AGJr079/32.4GOOCH SPRINGS VORTAC112.5005E

 
NDB name  Hdg/Dist  Freq  Var  ID
ROBINSON232/27.840003EROB .-. --- -...

Airport Services

Runway Information

Runway 17/35

Dimensions: 3200 x 80 ft. / 975 x 24 m
Surface: turf
RUNWAY 17  RUNWAY 35
Traffic pattern: leftleft
Obstructions: 30' pline, 200 ft. from runwaytrees

Airport Ownership and Management from official FAA records

Ownership: Privately-owned
Owner: WOODY MC CLELLAN
12000 WESTHEIMER, SUITE 218
HOUSTON, TX 77077
Phone 713-558-2288
Manager: WOODY MC CLELLAN
12000 WESTHEIMER, SUITE 218
HOUSTON, TX 77077
Phone 713-558-2288

Airport Operational Statistics

Aircraft based on the field: 1
Single engine airplanes: 1
    

Additional Remarks

FOR CD CTC FORT WORTH ARTCC AT 817-858-7584.

Instrument Procedures

There are no published instrument procedures at 19TX.

Some nearby airports with instrument procedures:

KTPL - Draughon-Miller Central Texas Regional Airport (8 nm SE)
KHLR - Hood AHP Airport (12 nm SW)
KILE - Skylark Field Airport (13 nm SW)
KPWG - Mc Gregor Executive Airport (18 nm NE)
KGRK - Robert Gray Army Airfield (19 nm SW)
 
Loc | Ops | Rwys | IFR | FBO | Links
Com | Nav | Svcs | Stats | Notes

City of Fort Worth
 
Area around 19TX (Woody Mc Clellan Ranch Airport)
 
Road maps at: MapQuest Bing Google
 
Aerial photo
No photo
 
Sectional chart

 
Airport distance calculator
Flying to Woody Mc Clellan Ranch Airport? Find the distance to fly.

From to 19TX

Sunrise and sunset
Times for 16-May-2021
 Local
(UTC-5)
 Zulu
(UTC)
Morning civil twilight06:0811:08
Sunrise06:3511:35
Sunset20:1801:18
Evening civil twilight20:4501:45

Current date and time
Zulu (UTC)  17-May-2021 01:37:02
Local (UTC-5)  16-May-2021 20:37:02
 
METAR
KTPL 
9nm SE 
170051Z AUTO 16009KT 10SM FEW026 24/20 A2989 RMK AO2 SLP112 T02390200
KHLR 
12nm SW 
170058Z AUTO 16009KT 10SM FEW026 24/19 A2988 RMK AO2 SLP109 T02390191
KILE 
13nm SW 
170056Z AUTO 16012KT 7SM CLR 24/19 A2989 RMK AO2 SLP109 P0001 T02390194
KPWG 
17nm NE 
170056Z AUTO 16010KT 10SM CLR 23/21 A2987 RMK AO2 SLP109 P0003 T02330206
KGOP 
18nm NW 
170115Z AUTO 15007KT 10SM CLR 23/20 A2988 RMK AO2
KGRK 
19nm SW 
170056Z AUTO 15008KT 10SM CLR 23/19 A2987 RMK AO2 SLP107 T02330190
TAF
KGRK 
19nm SW 
170000Z 1700/1806 13012KT 9999 FEW050 QNH2986INS BECMG 1702/1703 15012KT 9999 BKN030 QNH2986INS BECMG 1705/1706 16012KT 9999 BKN009 QNH2988INS BECMG 1715/1716 17010G15KT 9999 BKN015 QNH2990INS BECMG 1723/1724 15010G15KT 9999 BKN035 QNH2975INS BECMG 1802/1803 14009KT 9999 BKN020 QNH2977INS BECMG 1805/1806 12015G20KT 8000 -TSRA BKN015CB QNH2984INS TX29/1719Z TN21/1705Z
NOTAMs
Click for the latest NOTAMs
NOTAMs are issued by the DoD/FAA and will open in a separate window not controlled by AirNav.

 

 
 

Would you like to see your business listed on this page?

 If your business provides an interesting product or service to pilots, flight crews, aircraft, or users of the Woody Mc Clellan Ranch Airport, you should consider listing it here.  To start the listing process, click on the button below
 
Add a business
 

Other Pages about Woody Mc Clellan Ranch Airport

Update a link
 
Copyright © AirNav, LLC. All rights reserved. Privacy Policy  Contact